Time;durP1;ratioP1;P1;durP2;ratioP2;P2;SDS_P1;SDS_P2;PMS_P1;PMS_P2;Temp;Humidity;BMP_temperature;BMP_pressure;BME280_temperature;BME280_humidity;BME280_pressure;Samples;Min_cycle;Max_cycle;Signal;HPM_P1;HPM_P2
2023/10/14 00:00:27;;;;;;;17.63;7.43;;;;;;;;;;7361149;19;20782;-83
2023/10/14 00:02:52;;;;;;;16.45;7.10;;;;;;;;;;7359233;19;20071;-81
2023/10/14 00:05:20;;;;;;;17.52;7.03;;;;;;;;;;7366153;19;20513;-80
2023/10/14 00:07:45;;;;;;;17.67;7.20;;;;;;;;;;7358344;19;20321;-82
2023/10/14 00:10:12;;;;;;;18.08;6.43;;;;;;;;;;7362241;19;20048;-78
2023/10/14 00:12:39;;;;;;;18.90;6.55;;;;;;;;;;7362417;19;20018;-86
2023/10/14 00:15:05;;;;;;;19.42;6.50;;;;;;;;;;7368327;19;20018;-83
2023/10/14 00:17:35;;;;;;;20.08;7.28;;;;;;;;;;7373201;19;19994;-80
2023/10/14 00:20:14;;;;;;;18.25;6.30;;;;;;;;;;7369035;19;20002;-81
2023/10/14 00:22:39;;;;;;;18.20;6.50;;;;;;;;;;7366575;19;19999;-81
2023/10/14 00:25:11;;;;;;;17.08;6.50;;;;;;;;;;7370221;19;20006;-83
2023/10/14 00:27:37;;;;;;;18.25;7.57;;;;;;;;;;7370912;19;20010;-80
2023/10/14 00:30:11;;;;;;;15.23;5.78;;;;;;;;;;7369304;19;20036;-83
2023/10/14 00:32:37;;;;;;;19.20;6.07;;;;;;;;;;7371063;19;20003;-79
2023/10/14 00:35:10;;;;;;;19.35;6.13;;;;;;;;;;7366969;19;20014;-82
2023/10/14 00:37:36;;;;;;;15.68;5.40;;;;;;;;;;7359654;19;20026;-82
2023/10/14 00:40:10;;;;;;;11.70;5.10;;;;;;;;;;7366055;19;20002;-81
2023/10/14 00:42:35;;;;;;;15.18;5.03;;;;;;;;;;7373078;19;19999;-77
2023/10/14 00:45:01;;;;;;;14.07;5.43;;;;;;;;;;7371420;19;20006;-78
2023/10/14 00:47:26;;;;;;;15.00;4.63;;;;;;;;;;7374332;19;20411;-86
2023/10/14 00:49:52;;;;;;;13.75;4.80;;;;;;;;;;7362985;19;20020;-85
2023/10/14 00:52:22;;;;;;;10.70;4.40;;;;;;;;;;7362602;19;20058;-81
2023/10/14 00:55:12;;;;;;;11.55;3.83;;;;;;;;;;7368494;19;20488;-80
2023/10/14 00:57:39;;;;;;;12.25;3.45;;;;;;;;;;7365686;19;20003;-83
2023/10/14 01:00:09;;;;;;;14.77;4.32;;;;;;;;;;7372085;19;20358;-85
2023/10/14 01:02:37;;;;;;;11.32;3.63;;;;;;;;;;7364157;19;20464;-82
2023/10/14 01:05:14;;;;;;;9.07;3.05;;;;;;;;;;7366964;19;20006;-78
2023/10/14 01:07:39;;;;;;;11.70;3.50;;;;;;;;;;7365052;19;20010;-79
2023/10/14 01:10:05;;;;;;;8.63;3.22;;;;;;;;;;7367439;19;20490;-83
2023/10/14 01:12:44;;;;;;;11.23;3.25;;;;;;;;;;7371211;19;19999;-85
2023/10/14 01:15:22;;;;;;;10.55;3.17;;;;;;;;;;7362777;19;20013;-89
2023/10/14 01:17:53;;;;;;;9.98;2.97;;;;;;;;;;7368609;19;19994;-80
2023/10/14 01:20:26;;;;;;;14.70;3.53;;;;;;;;;;7361335;19;20005;-83
2023/10/14 01:22:57;;;;;;;13.88;3.47;;;;;;;;;;7271683;19;20466;-88
2023/10/14 01:25:26;;;;;;;14.15;3.53;;;;;;;;;;7270268;19;20002;-89
2023/10/14 01:27:51;;;;;;;9.50;3.17;;;;;;;;;;7268989;19;21028;-85
2023/10/14 01:30:23;;;;;;;10.80;2.87;;;;;;;;;;7275101;19;20090;-88
2023/10/14 01:32:49;;;;;;;10.35;3.30;;;;;;;;;;7271383;19;20676;-92
2023/10/14 01:37:46;;;;;;;8.98;3.00;;;;;;;;;;7276510;19;20006;-89
2023/10/14 01:40:24;;;;;;;9.03;2.50;;;;;;;;;;7277363;19;20035;-89
2023/10/14 01:42:50;;;;;;;11.25;2.35;;;;;;;;;;7271527;19;20251;-86
2023/10/14 01:45:20;;;;;;;9.43;2.90;;;;;;;;;;7272930;19;20005;-82
2023/10/14 01:47:49;;;;;;;9.52;2.17;;;;;;;;;;7275072;19;20423;-84
2023/10/14 01:50:14;;;;;;;14.93;2.22;;;;;;;;;;7264260;19;20074;-86
2023/10/14 01:52:41;;;;;;;12.45;2.83;;;;;;;;;;7269492;19;20077;-88
2023/10/14 01:55:08;;;;;;;8.00;1.85;;;;;;;;;;7264948;19;20037;-90
2023/10/14 01:57:34;;;;;;;14.20;2.25;;;;;;;;;;7274436;19;20423;-81
2023/10/14 01:59:59;;;;;;;7.80;1.87;;;;;;;;;;7270288;19;20003;-83
2023/10/14 02:02:27;;;;;;;9.55;2.13;;;;;;;;;;7269646;19;20030;-86
2023/10/14 02:04:56;;;;;;;12.68;2.30;;;;;;;;;;7269147;19;20003;-89
2023/10/14 02:07:22;;;;;;;10.85;1.92;;;;;;;;;;7264299;19;20472;-86
2023/10/14 02:09:55;;;;;;;8.00;1.85;;;;;;;;;;7267911;19;20466;-88
2023/10/14 02:12:20;;;;;;;9.95;1.88;;;;;;;;;;7273162;19;19999;-90
2023/10/14 02:14:56;;;;;;;7.45;1.85;;;;;;;;;;7265317;19;20842;-88
2023/10/14 02:17:23;;;;;;;12.88;2.72;;;;;;;;;;7268243;19;20011;-85
2023/10/14 02:19:51;;;;;;;10.02;2.03;;;;;;;;;;7261982;19;20058;-88
2023/10/14 02:22:21;;;;;;;11.48;2.00;;;;;;;;;;7346608;19;20006;-83
2023/10/14 02:24:48;;;;;;;9.43;2.25;;;;;;;;;;7366773;19;20003;-78
2023/10/14 02:27:13;;;;;;;11.75;2.22;;;;;;;;;;7363505;19;20005;-80
2023/10/14 02:29:47;;;;;;;10.73;2.30;;;;;;;;;;7361649;19;20006;-78
2023/10/14 02:32:13;;;;;;;8.80;2.20;;;;;;;;;;7365174;19;20356;-84
2023/10/14 02:34:38;;;;;;;10.90;2.33;;;;;;;;;;7365284;19;20002;-80
2023/10/14 02:37:06;;;;;;;13.65;2.17;;;;;;;;;;7356169;19;20238;-87
2023/10/14 02:39:31;;;;;;;8.25;1.92;;;;;;;;;;7370348;19;20033;-82
2023/10/14 02:41:59;;;;;;;10.93;1.88;;;;;;;;;;7367024;19;20822;-88
2023/10/14 02:44:28;;;;;;;9.30;2.10;;;;;;;;;;7366470;19;20062;-83
2023/10/14 02:46:54;;;;;;;8.23;2.05;;;;;;;;;;7361886;19;19998;-78
2023/10/14 02:49:24;;;;;;;8.70;1.75;;;;;;;;;;7367966;19;20091;-78
2023/10/14 02:51:52;;;;;;;10.43;1.90;;;;;;;;;;7366374;19;19997;-80
2023/10/14 02:54:36;;;;;;;8.85;1.90;;;;;;;;;;7360464;19;20006;-80
2023/10/14 02:57:01;;;;;;;;;;;;;;;;;;7365612;19;20408;-83
2023/10/14 02:59:38;;;;;;;8.50;1.73;;;;;;;;;;7365742;19;20450;-80
2023/10/14 03:02:14;;;;;;;8.02;1.73;;;;;;;;;;7366771;19;19998;-81
2023/10/14 03:07:25;;;;;;;9.30;1.80;;;;;;;;;;7363838;19;20015;-84
2023/10/14 03:09:51;;;;;;;9.35;1.92;;;;;;;;;;7363232;19;20019;-79
2023/10/14 03:12:19;;;;;;;6.85;1.75;;;;;;;;;;7367670;19;20122;-81
2023/10/14 03:14:48;;;;;;;6.43;1.52;;;;;;;;;;7361010;19;20122;-83
2023/10/14 03:17:14;;;;;;;8.32;2.05;;;;;;;;;;7366191;19;20376;-81
2023/10/14 03:19:39;;;;;;;7.05;1.88;;;;;;;;;;7365842;19;20337;-81
2023/10/14 03:22:06;;;;;;;10.13;1.97;;;;;;;;;;7359259;19;20090;-83
2023/10/14 03:24:38;;;;;;;7.03;1.90;;;;;;;;;;7365569;19;20747;-81
2023/10/14 03:27:04;;;;;;;6.10;1.67;;;;;;;;;;7362381;19;20041;-83
2023/10/14 03:29:30;;;;;;;5.25;1.60;;;;;;;;;;7365580;19;20011;-83
2023/10/14 03:31:56;;;;;;;4.53;1.52;;;;;;;;;;7363812;19;20003;-81
2023/10/14 03:34:25;;;;;;;8.45;1.73;;;;;;;;;;7364446;19;20009;-80
2023/10/14 03:37:00;;;;;;;3.63;1.08;;;;;;;;;;7363253;19;20015;-77
2023/10/14 03:39:46;;;;;;;4.88;1.15;;;;;;;;;;7365373;19;20439;-77
2023/10/14 03:42:14;;;;;;;2.67;0.80;;;;;;;;;;7363816;19;20451;-83
2023/10/14 03:44:42;;;;;;;1.77;0.50;;;;;;;;;;7364599;19;19995;-81
2023/10/14 03:47:16;;;;;;;0.82;0.50;;;;;;;;;;7362306;19;20003;-81
2023/10/14 03:49:43;;;;;;;1.27;0.35;;;;;;;;;;7358572;19;20044;-78
2023/10/14 03:52:12;;;;;;;0.20;0.20;;;;;;;;;;7359296;19;20010;-80
2023/10/14 03:54:43;;;;;;;0.38;0.30;;;;;;;;;;7365066;19;20011;-80
2023/10/14 03:57:14;;;;;;;1.23;0.50;;;;;;;;;;7360567;19;20467;-81
2023/10/14 03:59:41;;;;;;;1.35;0.35;;;;;;;;;;7358432;19;19995;-76
2023/10/14 04:02:08;;;;;;;3.08;0.45;;;;;;;;;;7364015;19;20006;-81
2023/10/14 04:04:34;;;;;;;1.27;0.30;;;;;;;;;;7365389;19;20396;-77
2023/10/14 04:09:38;;;;;;;0.53;0.30;;;;;;;;;;7363784;19;20011;-80
2023/10/14 04:12:09;;;;;;;0.55;0.30;;;;;;;;;;7366230;19;20531;-83
2023/10/14 04:14:37;;;;;;;0.85;0.47;;;;;;;;;;7360914;19;20011;-79
2023/10/14 04:17:19;;;;;;;1.40;0.80;;;;;;;;;;7362734;19;20129;-81
2023/10/14 04:19:46;;;;;;;0.90;0.57;;;;;;;;;;7359524;19;20002;-77
2023/10/14 04:24:50;;;;;;;1.35;0.60;;;;;;;;;;7365876;19;20034;-78
2023/10/14 04:27:36;;;;;;;1.23;0.60;;;;;;;;;;7354512;19;19995;-79
2023/10/14 04:30:11;;;;;;;2.38;0.80;;;;;;;;;;7356432;19;20006;-82
2023/10/14 04:33:16;;;;;;;1.98;0.90;;;;;;;;;;7363928;19;19998;-77
2023/10/14 04:35:31;;;;;;;3.05;0.90;;;;;;;;;;7351045;19;20090;-83
2023/10/14 04:37:57;;;;;;;2.03;1.00;;;;;;;;;;7361585;19;20023;-78
2023/10/14 04:42:59;;;;;;;3.20;1.02;;;;;;;;;;7366836;19;19999;-81
2023/10/14 04:45:30;;;;;;;4.28;1.10;;;;;;;;;;7362288;19;20362;-83
2023/10/14 04:47:57;;;;;;;4.22;1.10;;;;;;;;;;7366105;19;20344;-83
2023/10/14 04:50:23;;;;;;;5.68;1.40;;;;;;;;;;7359048;19;20002;-85
2023/10/14 04:52:48;;;;;;;4.85;1.35;;;;;;;;;;7361001;19;20028;-81
2023/10/14 04:55:28;;;;;;;3.80;1.15;;;;;;;;;;7354503;19;20377;-80
2023/10/14 05:00:32;;;;;;;5.25;1.63;;;;;;;;;;7368275;19;20434;-80
2023/10/14 05:02:59;;;;;;;3.42;1.40;;;;;;;;;;7369933;19;20285;-77
2023/10/14 05:05:30;;;;;;;4.43;1.70;;;;;;;;;;7360144;19;19991;-81
2023/10/14 05:07:58;;;;;;;4.28;1.63;;;;;;;;;;7372533;19;20005;-80
2023/10/14 05:10:26;;;;;;;4.70;1.60;;;;;;;;;;7364524;19;19999;-83
2023/10/14 05:12:52;;;;;;;7.85;1.95;;;;;;;;;;7369515;19;20427;-80
2023/10/14 05:15:20;;;;;;;3.63;1.40;;;;;;;;;;7362751;19;20014;-78
2023/10/14 05:17:49;;;;;;;5.40;1.75;;;;;;;;;;7368806;19;20013;-79
2023/10/14 05:20:38;;;;;;;9.30;2.20;;;;;;;;;;7364536;19;20626;-79
2023/10/14 05:23:05;;;;;;;5.15;2.00;;;;;;;;;;7367877;19;20460;-83
2023/10/14 05:25:30;;;;;;;4.88;1.98;;;;;;;;;;7371303;19;20359;-77
2023/10/14 05:27:55;;;;;;;5.57;2.20;;;;;;;;;;7368652;19;20022;-83
2023/10/14 05:30:24;;;;;;;7.95;2.42;;;;;;;;;;7365025;19;20722;-82
2023/10/14 05:32:51;;;;;;;6.32;2.10;;;;;;;;;;7370915;19;20003;-78
2023/10/14 05:35:16;;;;;;;6.93;2.30;;;;;;;;;;7362680;19;20010;-81
2023/10/14 05:37:41;;;;;;;6.45;2.53;;;;;;;;;;7370232;19;20005;-77
2023/10/14 05:40:13;;;;;;;5.57;2.97;;;;;;;;;;7367250;19;20066;-79
2023/10/14 05:42:39;;;;;;;8.32;3.33;;;;;;;;;;7369724;19;20881;-82
2023/10/14 05:45:04;;;;;;;11.07;3.50;;;;;;;;;;7368695;19;20002;-80
2023/10/14 05:47:30;;;;;;;6.50;2.90;;;;;;;;;;7371939;19;20102;-81
2023/10/14 05:49:55;;;;;;;8.00;2.97;;;;;;;;;;7370809;19;20743;-82
2023/10/14 05:52:24;;;;;;;8.45;3.50;;;;;;;;;;7359670;19;20374;-78
2023/10/14 05:54:49;;;;;;;14.90;4.78;;;;;;;;;;7369781;19;20006;-77
2023/10/14 05:57:16;;;;;;;15.15;5.70;;;;;;;;;;7370246;19;20455;-76
2023/10/14 05:59:43;;;;;;;14.63;5.68;;;;;;;;;;7367354;19;20066;-77
2023/10/14 06:02:11;;;;;;;14.30;6.28;;;;;;;;;;7365581;19;20013;-83
2023/10/14 06:04:39;;;;;;;18.33;7.00;;;;;;;;;;7368530;19;20102;-78
2023/10/14 06:07:05;;;;;;;20.60;7.07;;;;;;;;;;7363401;19;20005;-82
2023/10/14 06:09:31;;;;;;;17.52;6.60;;;;;;;;;;7366206;19;20070;-78
2023/10/14 06:11:56;;;;;;;21.27;7.20;;;;;;;;;;7367788;19;20384;-80
2023/10/14 06:14:21;;;;;;;19.13;6.43;;;;;;;;;;7363186;19;20011;-83
2023/10/14 06:16:47;;;;;;;17.77;6.77;;;;;;;;;;7372826;19;20457;-77
2023/10/14 06:19:14;;;;;;;23.88;6.68;;;;;;;;;;7362549;19;20599;-82
2023/10/14 06:21:39;;;;;;;19.05;6.55;;;;;;;;;;7361932;19;20002;-78
2023/10/14 06:24:10;;;;;;;23.67;7.22;;;;;;;;;;7367318;19;20379;-85
2023/10/14 06:26:35;;;;;;;22.67;6.70;;;;;;;;;;7371375;19;19990;-80
2023/10/14 06:29:01;;;;;;;17.80;6.07;;;;;;;;;;7365979;19;20025;-82
2023/10/14 06:31:26;;;;;;;19.23;6.45;;;;;;;;;;7368839;19;20626;-81
2023/10/14 06:33:54;;;;;;;16.50;6.35;;;;;;;;;;7367682;19;20452;-78
2023/10/14 06:36:19;;;;;;;21.50;6.65;;;;;;;;;;7348045;19;20010;-78
2023/10/14 06:38:44;;;;;;;19.43;6.10;;;;;;;;;;7366866;19;20503;-81
2023/10/14 06:41:11;;;;;;;13.67;5.37;;;;;;;;;;7361378;19;20500;-78
2023/10/14 06:43:37;;;;;;;19.08;4.60;;;;;;;;;;7367069;19;20341;-80
2023/10/14 06:46:04;;;;;;;13.80;4.47;;;;;;;;;;7369046;19;20046;-79
2023/10/14 06:48:29;;;;;;;17.38;4.25;;;;;;;;;;7349845;19;20017;-78
2023/10/14 06:50:55;;;;;;;16.77;4.37;;;;;;;;;;7361355;19;20378;-82
2023/10/14 06:53:20;;;;;;;15.73;4.15;;;;;;;;;;7365703;19;20775;-80
2023/10/14 06:55:45;;;;;;;15.93;4.03;;;;;;;;;;7364225;19;20055;-83
2023/10/14 06:58:11;;;;;;;15.75;4.07;;;;;;;;;;7365976;19;19999;-84
2023/10/14 07:00:37;;;;;;;16.23;3.90;;;;;;;;;;7370084;19;19991;-83
2023/10/14 07:03:03;;;;;;;15.93;4.43;;;;;;;;;;7362878;19;20655;-80
2023/10/14 07:05:29;;;;;;;15.00;3.60;;;;;;;;;;7357803;19;21051;-78
2023/10/14 07:07:57;;;;;;;14.60;3.70;;;;;;;;;;7363969;19;20112;-79
2023/10/14 07:10:27;;;;;;;12.10;3.65;;;;;;;;;;7361479;19;20094;-82
2023/10/14 07:12:53;;;;;;;12.27;3.40;;;;;;;;;;7363548;19;20003;-79
2023/10/14 07:15:19;;;;;;;12.65;3.60;;;;;;;;;;7363436;19;20427;-79
2023/10/14 07:17:48;;;;;;;14.75;3.83;;;;;;;;;;7365076;19;19998;-80
2023/10/14 07:20:13;;;;;;;14.32;3.70;;;;;;;;;;7347592;19;20050;-84
2023/10/14 07:22:42;;;;;;;19.08;4.40;;;;;;;;;;7359144;19;19998;-80
2023/10/14 07:25:07;;;;;;;16.10;4.13;;;;;;;;;;7359434;19;20367;-79
2023/10/14 07:27:35;;;;;;;17.35;3.83;;;;;;;;;;7319977;19;20323;-78
2023/10/14 07:30:01;;;;;;;13.75;3.50;;;;;;;;;;7362541;19;20492;-81
2023/10/14 07:32:30;;;;;;;13.18;3.80;;;;;;;;;;7363139;19;20191;-83
2023/10/14 07:34:56;;;;;;;18.33;3.65;;;;;;;;;;7362243;19;19999;-80
2023/10/14 07:37:21;;;;;;;13.73;3.37;;;;;;;;;;7361458;19;20389;-78
2023/10/14 07:39:52;;;;;;;11.50;3.03;;;;;;;;;;7368813;19;20275;-82
2023/10/14 07:42:17;;;;;;;13.40;3.88;;;;;;;;;;7359536;19;20010;-85
2023/10/14 07:44:43;;;;;;;12.82;3.42;;;;;;;;;;7361768;19;20050;-83
2023/10/14 07:47:10;;;;;;;15.30;3.63;;;;;;;;;;7369310;19;20442;-80
2023/10/14 07:49:36;;;;;;;17.48;3.60;;;;;;;;;;7364355;19;20243;-80
2023/10/14 07:52:01;;;;;;;15.70;3.83;;;;;;;;;;7347200;19;20452;-82
2023/10/14 07:54:29;;;;;;;14.60;3.25;;;;;;;;;;7353522;19;20690;-82
2023/10/14 07:56:55;;;;;;;15.05;3.20;;;;;;;;;;7364228;19;20371;-78
2023/10/14 07:59:20;;;;;;;20.25;3.45;;;;;;;;;;7357418;19;20343;-83
2023/10/14 08:01:45;;;;;;;18.25;3.92;;;;;;;;;;7353354;19;19998;-80
2023/10/14 08:04:14;;;;;;;11.65;3.00;;;;;;;;;;7361064;19;20007;-80
2023/10/14 08:06:40;;;;;;;12.85;3.33;;;;;;;;;;7359767;19;20091;-79
2023/10/14 08:09:05;;;;;;;16.20;3.53;;;;;;;;;;7358534;19;19998;-81
2023/10/14 08:11:37;;;;;;;13.13;3.42;;;;;;;;;;7349025;19;20006;-80
2023/10/14 08:14:06;;;;;;;13.68;3.95;;;;;;;;;;7355450;19;19995;-78
2023/10/14 08:16:31;;;;;;;12.68;3.85;;;;;;;;;;7362573;19;20022;-79
2023/10/14 08:18:56;;;;;;;15.25;3.25;;;;;;;;;;7365295;19;20554;-80
2023/10/14 08:21:21;;;;;;;16.90;3.30;;;;;;;;;;7357526;19;20020;-79
2023/10/14 08:23:46;;;;;;;13.43;3.60;;;;;;;;;;7356391;19;20247;-81
2023/10/14 08:26:14;;;;;;;11.73;3.27;;;;;;;;;;7352539;19;20267;-82
2023/10/14 08:28:40;;;;;;;14.20;3.30;;;;;;;;;;7349755;19;20242;-83
2023/10/14 08:31:07;;;;;;;12.95;3.25;;;;;;;;;;7365213;19;20347;-87
2023/10/14 08:33:32;;;;;;;9.80;3.00;;;;;;;;;;7360647;19;20003;-81
2023/10/14 08:35:58;;;;;;;16.33;3.55;;;;;;;;;;7362625;19;20313;-83
2023/10/14 08:38:27;;;;;;;15.67;3.33;;;;;;;;;;7368377;19;20070;-81
2023/10/14 08:40:53;;;;;;;11.65;2.95;;;;;;;;;;7373185;19;20242;-84
2023/10/14 08:43:19;;;;;;;8.45;2.50;;;;;;;;;;7369386;19;19998;-82
2023/10/14 08:45:48;;;;;;;14.48;3.13;;;;;;;;;;7367589;19;20110;-79
2023/10/14 08:48:16;;;;;;;10.32;2.78;;;;;;;;;;7361995;19;20693;-82
2023/10/14 08:50:42;;;;;;;10.77;2.92;;;;;;;;;;7366472;19;20471;-83
2023/10/14 08:53:09;;;;;;;12.18;2.88;;;;;;;;;;7367352;19;20288;-83
2023/10/14 08:55:35;;;;;;;13.02;3.40;;;;;;;;;;7364866;19;20006;-81
2023/10/14 08:58:02;;;;;;;17.98;3.67;;;;;;;;;;7369840;19;20041;-80
2023/10/14 09:00:29;;;;;;;13.20;2.65;;;;;;;;;;7359811;19;20006;-81
2023/10/14 09:02:54;;;;;;;8.80;2.28;;;;;;;;;;7364355;19;20475;-83
2023/10/14 09:05:20;;;;;;;14.23;3.30;;;;;;;;;;7362972;19;19999;-79
2023/10/14 09:07:48;;;;;;;15.07;3.67;;;;;;;;;;7368913;19;20965;-83
2023/10/14 09:10:16;;;;;;;14.63;3.30;;;;;;;;;;7369956;19;20027;-80
2023/10/14 09:12:51;;;;;;;11.63;3.38;;;;;;;;;;7368848;19;19999;-79
2023/10/14 09:15:20;;;;;;;12.20;3.20;;;;;;;;;;7367005;19;19998;-84
2023/10/14 09:17:46;;;;;;;13.13;3.15;;;;;;;;;;7372031;19;20014;-80
2023/10/14 09:20:26;;;;;;;12.75;3.60;;;;;;;;;;7367579;19;20320;-82
2023/10/14 09:22:51;;;;;;;12.00;3.38;;;;;;;;;;7365335;19;19999;-80
2023/10/14 09:25:17;;;;;;;14.17;3.80;;;;;;;;;;7358126;19;20006;-80
2023/10/14 09:27:46;;;;;;;13.57;4.33;;;;;;;;;;7358388;19;20688;-80
2023/10/14 09:30:11;;;;;;;16.20;4.05;;;;;;;;;;7348874;19;20668;-80
2023/10/14 09:32:36;;;;;;;15.35;3.67;;;;;;;;;;7346630;19;20009;-79
2023/10/14 09:35:01;;;;;;;15.97;3.77;;;;;;;;;;7353996;19;20003;-80
2023/10/14 09:37:26;;;;;;;14.00;3.77;;;;;;;;;;7357561;19;20005;-79
2023/10/14 09:39:57;;;;;;;12.40;3.30;;;;;;;;;;7364398;19;20940;-79
2023/10/14 09:42:24;;;;;;;14.20;3.80;;;;;;;;;;7361038;19;20002;-80
2023/10/14 09:44:51;;;;;;;13.05;4.05;;;;;;;;;;7367415;19;19998;-80
2023/10/14 09:47:22;;;;;;;12.43;3.67;;;;;;;;;;7345849;19;20035;-83
2023/10/14 09:49:47;;;;;;;9.30;3.03;;;;;;;;;;7357922;19;20533;-82
2023/10/14 09:52:14;;;;;;;9.85;3.53;;;;;;;;;;7359868;19;20178;-80
2023/10/14 09:54:40;;;;;;;13.57;3.03;;;;;;;;;;7364162;19;20002;-79
2023/10/14 09:57:10;;;;;;;11.95;3.58;;;;;;;;;;7364513;19;20002;-82
2023/10/14 09:59:37;;;;;;;13.70;4.20;;;;;;;;;;7353408;19;20111;-80
2023/10/14 10:02:02;;;;;;;13.10;3.78;;;;;;;;;;7367364;19;20007;-82
2023/10/14 10:04:31;;;;;;;10.45;3.88;;;;;;;;;;7360924;19;20560;-81
2023/10/14 10:07:06;;;;;;;16.80;4.22;;;;;;;;;;7366646;19;20124;-80
2023/10/14 10:09:50;;;;;;;14.13;3.70;;;;;;;;;;7367085;19;20002;-79
2023/10/14 10:12:16;;;;;;;13.50;3.45;;;;;;;;;;7365315;19;20003;-78
2023/10/14 10:14:42;;;;;;;13.85;4.00;;;;;;;;;;7356905;19;20006;-79
2023/10/14 10:17:09;;;;;;;16.83;3.92;;;;;;;;;;7366254;19;20614;-79
2023/10/14 10:19:53;;;;;;;14.63;3.17;;;;;;;;;;7363696;19;19998;-78
2023/10/14 10:22:19;;;;;;;14.02;3.72;;;;;;;;;;7362702;19;20017;-79
2023/10/14 10:24:44;;;;;;;22.80;3.88;;;;;;;;;;7358405;19;19995;-79
2023/10/14 10:27:14;;;;;;;16.50;3.05;;;;;;;;;;7365950;19;20002;-81
2023/10/14 10:29:42;;;;;;;11.35;3.30;;;;;;;;;;7364553;19;20701;-83
2023/10/14 10:32:08;;;;;;;14.63;3.83;;;;;;;;;;7370121;19;20336;-80
2023/10/14 10:34:33;;;;;;;14.63;3.50;;;;;;;;;;7357238;19;19998;-82
2023/10/14 10:36:59;;;;;;;16.55;3.63;;;;;;;;;;7357856;19;20087;-79
2023/10/14 10:39:25;;;;;;;12.52;2.58;;;;;;;;;;7364723;19;20007;-82
2023/10/14 10:41:50;;;;;;;13.38;3.08;;;;;;;;;;7366321;19;19998;-85
2023/10/14 10:44:16;;;;;;;17.25;2.90;;;;;;;;;;7361502;19;20007;-84
2023/10/14 10:46:42;;;;;;;11.83;3.10;;;;;;;;;;7359757;19;19998;-79
2023/10/14 10:49:10;;;;;;;16.63;3.20;;;;;;;;;;7365882;19;20255;-80
2023/10/14 10:51:35;;;;;;;16.15;3.63;;;;;;;;;;7360377;19;20022;-79
2023/10/14 10:54:02;;;;;;;14.82;3.15;;;;;;;;;;7364913;19;20010;-81
2023/10/14 10:56:31;;;;;;;13.15;2.95;;;;;;;;;;7351971;19;20013;-88
2023/10/14 10:59:01;;;;;;;13.55;2.78;;;;;;;;;;7363041;19;20382;-80
2023/10/14 11:01:33;;;;;;;15.48;3.05;;;;;;;;;;7367997;19;20028;-81
2023/10/14 11:04:03;;;;;;;13.15;2.83;;;;;;;;;;7364216;19;20531;-79
2023/10/14 11:06:29;;;;;;;10.13;2.38;;;;;;;;;;7361650;19;20127;-88
2023/10/14 11:08:57;;;;;;;12.90;3.13;;;;;;;;;;7352174;19;20003;-84
2023/10/14 11:11:27;;;;;;;9.90;2.53;;;;;;;;;;7337837;19;20352;-90
2023/10/14 11:13:52;;;;;;;8.68;2.42;;;;;;;;;;7348475;19;19999;-82
2023/10/14 11:16:18;;;;;;;12.27;2.47;;;;;;;;;;7351112;19;20003;-86
2023/10/14 11:18:47;;;;;;;12.02;2.22;;;;;;;;;;7358606;19;20315;-81
2023/10/14 11:21:13;;;;;;;13.27;2.85;;;;;;;;;;7356597;19;20732;-85
2023/10/14 11:23:39;;;;;;;10.30;2.90;;;;;;;;;;7359658;19;20002;-83
2023/10/14 11:26:08;;;;;;;14.32;2.95;;;;;;;;;;7359311;19;20009;-79
2023/10/14 11:28:33;;;;;;;11.98;2.65;;;;;;;;;;7357943;19;20111;-83
2023/10/14 11:30:58;;;;;;;10.40;2.30;;;;;;;;;;7362757;19;20040;-80
2023/10/14 11:33:25;;;;;;;11.10;2.25;;;;;;;;;;7355749;19;20252;-80
2023/10/14 11:35:50;;;;;;;9.50;2.58;;;;;;;;;;7352856;19;20010;-79
2023/10/14 11:38:15;;;;;;;10.32;2.50;;;;;;;;;;7360931;19;20006;-85
2023/10/14 11:40:45;;;;;;;10.43;2.30;;;;;;;;;;7336702;19;20002;-80
2023/10/14 11:43:11;;;;;;;10.63;2.45;;;;;;;;;;7361218;19;20240;-81
2023/10/14 11:45:41;;;;;;;9.43;2.45;;;;;;;;;;7350882;19;20013;-82
2023/10/14 11:48:06;;;;;;;11.57;2.60;;;;;;;;;;7347415;19;20003;-83
2023/10/14 11:50:33;;;;;;;9.63;2.40;;;;;;;;;;7359569;19;20424;-80
2023/10/14 11:52:58;;;;;;;12.50;2.55;;;;;;;;;;7363228;19;20009;-84
2023/10/14 11:55:27;;;;;;;12.07;2.20;;;;;;;;;;7360990;19;19995;-85
2023/10/14 11:57:55;;;;;;;15.30;2.83;;;;;;;;;;7355886;19;20021;-87
2023/10/14 12:00:21;;;;;;;11.02;2.72;;;;;;;;;;7357563;19;20003;-85
2023/10/14 12:02:47;;;;;;;8.88;2.70;;;;;;;;;;7355777;19;20366;-83
2023/10/14 12:05:13;;;;;;;12.73;3.13;;;;;;;;;;7354419;19;20003;-84
2023/10/14 12:07:38;;;;;;;12.93;2.40;;;;;;;;;;7347935;19;20348;-91
2023/10/14 12:10:08;;;;;;;14.82;2.15;;;;;;;;;;7372158;19;20141;-86
2023/10/14 12:12:33;;;;;;;12.20;2.63;;;;;;;;;;7375257;19;19994;-84
2023/10/14 12:15:05;;;;;;;11.05;2.20;;;;;;;;;;7367868;19;20417;-78
2023/10/14 12:17:31;;;;;;;15.65;2.95;;;;;;;;;;7379090;19;20031;-86
2023/10/14 12:19:57;;;;;;;11.50;2.33;;;;;;;;;;7365947;19;20830;-83
2023/10/14 12:22:22;;;;;;;12.13;2.70;;;;;;;;;;7354580;19;20003;-84
2023/10/14 12:24:47;;;;;;;13.20;2.58;;;;;;;;;;7353531;19;20506;-81
2023/10/14 12:27:15;;;;;;;11.55;2.47;;;;;;;;;;7352792;19;20031;-82
2023/10/14 12:29:41;;;;;;;10.93;2.63;;;;;;;;;;7377399;19;20467;-80
2023/10/14 12:32:12;;;;;;;9.82;2.20;;;;;;;;;;7377886;19;20006;-82
2023/10/14 12:34:39;;;;;;;8.10;1.85;;;;;;;;;;7370162;19;20007;-87
2023/10/14 12:37:06;;;;;;;12.70;2.22;;;;;;;;;;7370663;19;20031;-84
2023/10/14 12:39:43;;;;;;;12.25;2.22;;;;;;;;;;7371763;19;19998;-91
2023/10/14 12:42:08;;;;;;;10.20;2.63;;;;;;;;;;7375660;19;20711;-84
2023/10/14 12:44:35;;;;;;;13.52;3.13;;;;;;;;;;7373136;19;20223;-84
2023/10/14 12:47:10;;;;;;;10.90;2.38;;;;;;;;;;7366592;19;20125;-87
2023/10/14 12:49:37;;;;;;;13.50;2.67;;;;;;;;;;7363275;19;20439;-83
2023/10/14 12:52:05;;;;;;;16.15;2.88;;;;;;;;;;7369840;19;20539;-86
2023/10/14 12:54:34;;;;;;;14.05;2.72;;;;;;;;;;7373057;19;20029;-80
2023/10/14 12:57:00;;;;;;;10.20;2.30;;;;;;;;;;7369659;19;20800;-84
2023/10/14 12:59:25;;;;;;;11.43;2.08;;;;;;;;;;7365277;19;20034;-81
2023/10/14 13:01:58;;;;;;;10.35;2.05;;;;;;;;;;7359994;19;21131;-80
2023/10/14 13:04:23;;;;;;;9.32;2.42;;;;;;;;;;7367242;19;20009;-82
2023/10/14 13:06:49;;;;;;;11.95;2.78;;;;;;;;;;7365102;19;19999;-81
2023/10/14 13:09:14;;;;;;;9.85;2.92;;;;;;;;;;7372476;19;20006;-79
2023/10/14 13:11:40;;;;;;;11.23;2.35;;;;;;;;;;7373567;19;20014;-83
2023/10/14 13:14:08;;;;;;;11.13;2.35;;;;;;;;;;7366405;19;20478;-79
2023/10/14 13:16:34;;;;;;;13.43;2.40;;;;;;;;;;7364586;19;20363;-82
2023/10/14 13:18:59;;;;;;;11.80;2.78;;;;;;;;;;7367470;19;20234;-82
2023/10/14 13:21:29;;;;;;;11.25;2.40;;;;;;;;;;7364742;19;20003;-82
2023/10/14 13:23:54;;;;;;;11.20;2.45;;;;;;;;;;7359163;19;20010;-82
2023/10/14 13:26:19;;;;;;;13.57;2.50;;;;;;;;;;7357583;19;19999;-87
2023/10/14 13:28:45;;;;;;;10.03;2.70;;;;;;;;;;7361719;19;20002;-86
2023/10/14 13:31:12;;;;;;;14.90;2.85;;;;;;;;;;7365188;19;20009;-82
2023/10/14 13:33:37;;;;;;;14.45;2.55;;;;;;;;;;7355971;19;20014;-82
2023/10/14 13:36:08;;;;;;;12.37;2.87;;;;;;;;;;7352086;19;20018;-81
2023/10/14 13:38:34;;;;;;;13.10;3.03;;;;;;;;;;7364848;19;20231;-81
2023/10/14 13:40:59;;;;;;;11.18;2.50;;;;;;;;;;7356623;19;20369;-80
2023/10/14 13:43:25;;;;;;;11.97;2.60;;;;;;;;;;7360195;19;20001;-82
2023/10/14 13:45:52;;;;;;;20.43;3.47;;;;;;;;;;7342197;19;20290;-87
2023/10/14 13:48:17;;;;;;;13.55;2.83;;;;;;;;;;7335931;19;20270;-88
2023/10/14 13:50:42;;;;;;;12.13;2.63;;;;;;;;;;7360690;19;20014;-86
2023/10/14 13:53:18;;;;;;;12.27;2.53;;;;;;;;;;7361977;19;20247;-84
2023/10/14 13:55:44;;;;;;;13.90;2.92;;;;;;;;;;7360685;19;20342;-80
2023/10/14 13:58:12;;;;;;;11.32;2.63;;;;;;;;;;7367491;19;20002;-80
2023/10/14 14:00:39;;;;;;;12.93;2.65;;;;;;;;;;7360844;19;20031;-81
2023/10/14 14:03:09;;;;;;;9.82;2.47;;;;;;;;;;7360369;19;20009;-86
2023/10/14 14:05:35;;;;;;;9.90;2.28;;;;;;;;;;7350302;19;20070;-82
2023/10/14 14:08:00;;;;;;;11.37;2.50;;;;;;;;;;7360876;19;20079;-84
2023/10/14 14:10:26;;;;;;;13.77;2.65;;;;;;;;;;7354869;19;20802;-86
2023/10/14 14:12:53;;;;;;;14.40;2.70;;;;;;;;;;7358010;19;19991;-85
2023/10/14 14:15:18;;;;;;;11.50;2.58;;;;;;;;;;7365411;19;20372;-82
2023/10/14 14:17:43;;;;;;;9.75;2.55;;;;;;;;;;7364872;19;20914;-84
2023/10/14 14:20:10;;;;;;;9.48;2.30;;;;;;;;;;7354631;19;20002;-89
2023/10/14 14:22:36;;;;;;;13.77;3.17;;;;;;;;;;7363589;19;20102;-82
2023/10/14 14:25:01;;;;;;;13.40;2.70;;;;;;;;;;7352626;19;20062;-83
2023/10/14 14:27:26;;;;;;;10.50;2.83;;;;;;;;;;7350827;19;20252;-80
2023/10/14 14:29:55;;;;;;;9.80;2.50;;;;;;;;;;7358469;19;20313;-83
2023/10/14 14:32:20;;;;;;;10.15;2.50;;;;;;;;;;7368113;19;20122;-85
2023/10/14 14:34:46;;;;;;;10.90;2.28;;;;;;;;;;7359717;19;20006;-86
2023/10/14 14:37:11;;;;;;;10.80;2.50;;;;;;;;;;7348848;19;20002;-90
2023/10/14 14:39:40;;;;;;;10.07;2.45;;;;;;;;;;7364969;19;20103;-83
2023/10/14 14:42:10;;;;;;;10.25;2.08;;;;;;;;;;7365278;19;20037;-83
2023/10/14 14:44:35;;;;;;;8.35;2.20;;;;;;;;;;7361333;19;20006;-85
2023/10/14 14:47:00;;;;;;;8.40;2.37;;;;;;;;;;7352398;19;20013;-81
2023/10/14 14:49:25;;;;;;;8.20;2.07;;;;;;;;;;7365378;19;20227;-80
2023/10/14 14:51:54;;;;;;;12.98;3.30;;;;;;;;;;7357803;19;20590;-82